createdAt,value
2022-11-17T00:00:45.073Z,99186.09
2022-11-17T00:03:20.619Z,99169.13
2022-11-17T00:05:47.429Z,99120.22
2022-11-17T00:08:14.230Z,99163.00
2022-11-17T00:10:43.738Z,99143.91
2022-11-17T00:13:29.679Z,99094.06
2022-11-17T00:15:58.618Z,99104.50
2022-11-17T00:18:43.696Z,99097.41
2022-11-17T00:21:23.755Z,99107.44
2022-11-17T00:23:50.999Z,99095.06
2022-11-17T00:26:23.535Z,99088.38
2022-11-17T00:29:01.579Z,99096.88
2022-11-17T00:31:49.010Z,99078.22
2022-11-17T00:34:22.602Z,99058.56
2022-11-17T00:36:53.949Z,99073.75
2022-11-17T00:39:22.765Z,99006.41
2022-11-17T00:41:55.799Z,99028.81
2022-11-17T00:44:26.359Z,98994.00
2022-11-17T00:46:56.460Z,98971.63
2022-11-17T00:49:26.549Z,98993.59
2022-11-17T00:51:54.348Z,98996.34
2022-11-17T00:54:26.568Z,98959.63
2022-11-17T00:56:54.817Z,98947.25
2022-11-17T00:59:21.746Z,98989.09
2022-11-17T01:01:51.132Z,98917.91
2022-11-17T01:04:20.622Z,98948.63
2022-11-17T01:06:51.221Z,98943.88
2022-11-17T01:09:20.166Z,98967.81
2022-11-17T01:11:50.999Z,98925.25
2022-11-17T01:14:20.501Z,98948.59
2022-11-17T01:16:47.371Z,98903.16
2022-11-17T01:19:15.329Z,98919.25
2022-11-17T01:21:42.976Z,98892.56
2022-11-17T01:24:11.513Z,98894.66
2022-11-17T01:26:39.508Z,98887.41
2022-11-17T01:29:13.003Z,98907.97
2022-11-17T01:31:45.518Z,98905.84
2022-11-17T01:34:12.892Z,98891.41
2022-11-17T01:37:00.551Z,98864.59
2022-11-17T01:39:29.385Z,98836.50
2022-11-17T01:41:56.943Z,98847.78
2022-11-17T01:44:42.061Z,98866.19
2022-11-17T01:47:24.191Z,98835.22
2022-11-17T01:49:56.254Z,98856.28
2022-11-17T01:52:24.856Z,98824.09
2022-11-17T01:54:54.290Z,98825.31
2022-11-17T01:57:45.570Z,98800.44
2022-11-17T02:00:16.703Z,98838.91
2022-11-17T02:02:45.656Z,98853.25
2022-11-17T02:05:43.637Z,98787.94
2022-11-17T02:08:12.194Z,98855.03
2022-11-17T02:10:45.894Z,98816.66
2022-11-17T02:13:17.841Z,98839.16
2022-11-17T02:15:44.687Z,98796.88
2022-11-17T02:18:11.907Z,98822.00
2022-11-17T02:20:52.005Z,98805.16
2022-11-17T02:23:29.169Z,98807.25
2022-11-17T02:26:04.821Z,98810.88
2022-11-17T02:28:43.433Z,98786.53
2022-11-17T02:31:09.972Z,98789.94
2022-11-17T02:33:42.559Z,98793.28
2022-11-17T02:36:16.775Z,98790.38
2022-11-17T02:39:20.050Z,98804.31
2022-11-17T02:42:02.972Z,98800.38
2022-11-17T02:44:58.877Z,98791.91
2022-11-17T02:47:33.027Z,98743.00
2022-11-17T02:50:05.821Z,98765.75
2022-11-17T02:52:32.828Z,98765.34
2022-11-17T02:55:06.280Z,98785.47
2022-11-17T02:57:34.814Z,98773.91
2022-11-17T03:00:16.960Z,98782.16
2022-11-17T03:03:06.437Z,98772.00
2022-11-17T03:05:51.877Z,98771.88
2022-11-17T03:08:33.513Z,98743.34
2022-11-17T03:11:02.775Z,98757.81
2022-11-17T03:14:14.520Z,98754.94
2022-11-17T03:17:14.309Z,98751.09
2022-11-17T03:20:13.707Z,98717.75
2022-11-17T03:22:50.186Z,98741.41
2022-11-17T03:25:21.775Z,98740.06
2022-11-17T03:27:53.139Z,98735.75
2022-11-17T03:30:25.286Z,98728.88
2022-11-17T03:33:02.343Z,98734.16
2022-11-17T03:35:31.375Z,98728.34
2022-11-17T03:38:07.228Z,98730.91
2022-11-17T03:40:37.111Z,98723.19
2022-11-17T03:43:08.163Z,98728.41
2022-11-17T03:45:39.402Z,98682.25
2022-11-17T03:48:36.135Z,98719.25
2022-11-17T03:51:54.163Z,98678.72
2022-11-17T03:54:24.294Z,98682.59
2022-11-17T03:56:57.987Z,98724.09
2022-11-17T03:59:43.351Z,98711.41
2022-11-17T04:02:18.863Z,98702.03
2022-11-17T04:05:04.112Z,98708.69
2022-11-17T04:07:30.833Z,98722.81
2022-11-17T04:09:57.691Z,98710.72
2022-11-17T04:12:42.841Z,98725.78
2022-11-17T04:15:29.673Z,98707.94
2022-11-17T04:17:57.097Z,98700.66
2022-11-17T04:20:23.974Z,98684.34
2022-11-17T04:23:07.204Z,98683.56
2022-11-17T04:26:00.869Z,98682.06
2022-11-17T04:28:38.066Z,98691.00
2022-11-17T04:31:19.970Z,98684.56
2022-11-17T04:33:48.914Z,98666.19
2022-11-17T04:36:18.940Z,98672.84
2022-11-17T04:38:50.719Z,98654.47
2022-11-17T04:41:37.446Z,98657.94
2022-11-17T04:44:06.049Z,98662.94
2022-11-17T04:46:34.257Z,98629.13
2022-11-17T04:49:01.289Z,98660.72
2022-11-17T04:51:29.458Z,98640.09
2022-11-17T04:53:56.686Z,98636.47
2022-11-17T04:56:24.766Z,98647.94
2022-11-17T04:58:52.336Z,98618.78
2022-11-17T05:01:22.869Z,98630.50
2022-11-17T05:03:54.706Z,98642.88
2022-11-17T05:06:32.194Z,98632.28
2022-11-17T05:09:03.070Z,98628.91
2022-11-17T05:11:49.953Z,98630.78
2022-11-17T05:14:20.069Z,98632.28
2022-11-17T05:17:09.908Z,98643.84
2022-11-17T05:19:44.436Z,98600.31
2022-11-17T05:22:40.953Z,98626.72
2022-11-17T05:25:08.886Z,98614.00
2022-11-17T05:27:38.445Z,98635.09
2022-11-17T05:30:09.368Z,98626.78
2022-11-17T05:32:36.192Z,98625.47
2022-11-17T05:35:04.501Z,98610.00
2022-11-17T05:37:31.228Z,98625.72
2022-11-17T05:39:58.258Z,98606.72
2022-11-17T05:42:25.020Z,98595.94
2022-11-17T05:44:51.854Z,98623.91
2022-11-17T05:47:21.025Z,98623.22
2022-11-17T05:49:47.924Z,98626.72
2022-11-17T05:52:14.685Z,98610.53
2022-11-17T05:54:41.533Z,98584.47
2022-11-17T05:57:15.925Z,98610.69
2022-11-17T05:59:45.805Z,98617.31
2022-11-17T06:02:23.945Z,98605.91
2022-11-17T06:04:51.845Z,98602.44
2022-11-17T06:07:20.077Z,98587.22
2022-11-17T06:09:48.811Z,98596.00
2022-11-17T06:12:15.603Z,98599.16
2022-11-17T06:14:42.565Z,98581.56
2022-11-17T06:17:22.818Z,98586.09
2022-11-17T06:20:02.802Z,98590.75
2022-11-17T06:22:30.874Z,98580.88
2022-11-17T06:24:58.691Z,98577.56
2022-11-17T06:27:25.852Z,98532.94
2022-11-17T06:29:54.601Z,98583.44
2022-11-17T06:32:21.948Z,98566.81
2022-11-17T06:34:55.168Z,98548.66
2022-11-17T06:37:22.651Z,98580.06
2022-11-17T06:39:49.854Z,98588.50
2022-11-17T06:42:16.637Z,98604.09
2022-11-17T06:44:46.146Z,98600.00
2022-11-17T06:47:13.201Z,98590.38
2022-11-17T06:49:39.809Z,98579.53
2022-11-17T06:52:11.116Z,98594.63
2022-11-17T06:54:38.042Z,98584.81
2022-11-17T06:57:12.562Z,98577.50
2022-11-17T06:59:41.950Z,98580.97
2022-11-17T07:02:08.835Z,98597.13
2022-11-17T07:04:36.297Z,98577.66
2022-11-17T07:07:03.309Z,98581.13
2022-11-17T07:09:31.245Z,98583.78
2022-11-17T07:12:00.697Z,98606.44
2022-11-17T07:14:27.365Z,98611.03
2022-11-17T07:16:54.063Z,98584.31
2022-11-17T07:19:20.626Z,98580.97
2022-11-17T07:21:47.428Z,98614.22
2022-11-17T07:24:14.153Z,98594.38
2022-11-17T07:26:40.839Z,98586.72
2022-11-17T07:29:07.510Z,98606.38
2022-11-17T07:31:37.838Z,98619.13
2022-11-17T07:34:04.755Z,98598.88
2022-11-17T07:36:31.534Z,98629.63
2022-11-17T07:38:58.359Z,98617.78
2022-11-17T07:41:25.079Z,98630.56
2022-11-17T07:43:51.915Z,98625.63
2022-11-17T07:46:19.273Z,98618.97
2022-11-17T07:48:46.257Z,98615.81
2022-11-17T07:51:14.257Z,98603.66
2022-11-17T07:53:41.048Z,98603.75
2022-11-17T07:56:10.766Z,98612.88
2022-11-17T07:58:39.646Z,98585.22
2022-11-17T08:01:11.334Z,98638.66
2022-11-17T08:03:38.473Z,98641.22
2022-11-17T08:06:06.847Z,98604.50
2022-11-17T08:08:34.620Z,98630.28
2022-11-17T08:11:06.968Z,98602.91
2022-11-17T08:13:34.435Z,98650.06
2022-11-17T08:16:01.598Z,98653.69
2022-11-17T08:18:29.173Z,98654.06
2022-11-17T08:21:05.625Z,98619.00
2022-11-17T08:23:32.558Z,98609.13
2022-11-17T08:25:59.808Z,98668.59
2022-11-17T08:28:26.750Z,98653.47
2022-11-17T08:30:53.695Z,98649.94
2022-11-17T08:33:23.625Z,98639.44
2022-11-17T08:36:01.151Z,98645.25
2022-11-17T08:38:31.207Z,98658.31
2022-11-17T08:41:08.630Z,98676.25
2022-11-17T08:43:35.670Z,98675.41
2022-11-17T08:46:02.790Z,98676.84
2022-11-17T08:48:31.623Z,98680.19
2022-11-17T08:50:59.140Z,98679.50
2022-11-17T08:53:25.785Z,98678.06
2022-11-17T08:55:52.533Z,98676.41
2022-11-17T08:58:19.392Z,98685.47
2022-11-17T09:00:47.341Z,98685.09
2022-11-17T09:03:14.787Z,98685.16
2022-11-17T09:05:47.071Z,98674.66
2022-11-17T09:11:11.728Z,98682.28
2022-11-17T09:13:39.273Z,98699.38
2022-11-17T09:16:09.020Z,98702.56
2022-11-17T09:18:37.815Z,98704.00
2022-11-17T09:21:13.721Z,98705.66
2022-11-17T09:23:40.435Z,98711.78
2022-11-17T09:26:09.457Z,98715.25
2022-11-17T09:28:40.302Z,98719.72
2022-11-17T09:31:10.115Z,98712.53
2022-11-17T09:33:37.389Z,98717.53
2022-11-17T09:36:09.678Z,98710.72
2022-11-17T09:38:37.455Z,98718.06
2022-11-17T09:41:20.333Z,98718.50
2022-11-17T09:44:18.225Z,98732.41
2022-11-17T09:46:50.055Z,98742.31
2022-11-17T09:49:29.313Z,98735.66
2022-11-17T09:52:00.316Z,98751.63
2022-11-17T09:54:39.428Z,98745.03
2022-11-17T09:57:15.400Z,98746.19
2022-11-17T09:59:42.149Z,98754.81
2022-11-17T10:02:10.594Z,98751.22
2022-11-17T10:04:37.691Z,98721.94
2022-11-17T10:07:09.845Z,98758.28
2022-11-17T10:09:41.406Z,98711.94
2022-11-17T10:12:20.051Z,98745.72
2022-11-17T10:14:53.400Z,98722.97
2022-11-17T10:17:26.493Z,98732.81
2022-11-17T10:19:53.208Z,98719.09
2022-11-17T10:22:36.282Z,98769.47
2022-11-17T10:25:03.304Z,98740.44
2022-11-17T10:27:34.292Z,98740.59
2022-11-17T10:30:02.526Z,98773.47
2022-11-17T10:32:34.551Z,98773.63
2022-11-17T10:35:22.943Z,98769.91
2022-11-17T10:38:08.293Z,98786.56
2022-11-17T10:40:40.990Z,98789.59
2022-11-17T10:43:13.879Z,98792.09
2022-11-17T10:45:45.363Z,98756.81
2022-11-17T10:48:30.275Z,98784.38
2022-11-17T10:51:02.457Z,98795.03
2022-11-17T10:53:44.848Z,98799.19
2022-11-17T10:56:17.687Z,98796.84
2022-11-17T10:59:12.759Z,98800.47
2022-11-17T11:01:43.762Z,98804.63
2022-11-17T11:04:47.737Z,98806.75
2022-11-17T11:07:23.837Z,98809.38
2022-11-17T11:09:56.020Z,98813.25
2022-11-17T11:12:33.462Z,98802.56
2022-11-17T11:15:02.266Z,98812.72
2022-11-17T11:17:29.907Z,98811.75
2022-11-17T11:19:57.060Z,98821.50
2022-11-17T11:22:23.527Z,98819.53
2022-11-17T11:25:17.900Z,98819.69
2022-11-17T11:27:50.621Z,98823.31
2022-11-17T11:30:19.483Z,98829.44
2022-11-17T11:33:33.292Z,98836.28
2022-11-17T11:36:15.004Z,98832.81
2022-11-17T11:38:57.913Z,98830.16
2022-11-17T11:41:51.123Z,98843.25
2022-11-17T11:44:30.917Z,98837.41
2022-11-17T11:47:09.713Z,98849.13
2022-11-17T11:49:45.944Z,98850.81
2022-11-17T11:52:20.366Z,98865.31
2022-11-17T11:55:14.831Z,98840.28
2022-11-17T11:57:53.897Z,98867.56
2022-11-17T12:00:21.028Z,98849.72
2022-11-17T12:02:58.783Z,98864.47
2022-11-17T12:05:52.066Z,98863.34
2022-11-17T12:08:50.858Z,98860.84
2022-11-17T12:11:40.557Z,98875.63
2022-11-17T12:14:07.410Z,98872.16
2022-11-17T12:16:36.469Z,98863.81
2022-11-17T12:19:41.305Z,98869.06
2022-11-17T12:22:08.160Z,98857.41
2022-11-17T12:24:41.649Z,98862.97
2022-11-17T12:27:36.178Z,98868.94
2022-11-17T12:30:08.018Z,98859.34
2022-11-17T12:32:43.863Z,98862.28
2022-11-17T12:35:26.718Z,98857.81
2022-11-17T12:38:18.900Z,98860.06
2022-11-17T12:40:50.931Z,98862.72
2022-11-17T12:43:27.850Z,98859.91
2022-11-17T12:46:25.812Z,98870.09
2022-11-17T12:49:20.156Z,98868.72
2022-11-17T12:51:57.757Z,98864.25
2022-11-17T12:54:27.884Z,98882.34
2022-11-17T12:57:12.830Z,98880.94
2022-11-17T12:59:45.531Z,98885.28
2022-11-17T13:02:24.237Z,98903.94
2022-11-17T13:04:55.184Z,98902.56
2022-11-17T13:07:25.387Z,98910.06
2022-11-17T13:09:57.227Z,98911.00
2022-11-17T13:12:29.090Z,98918.09
2022-11-17T13:14:58.032Z,98908.66
2022-11-17T13:17:31.605Z,98908.66
2022-11-17T13:20:16.231Z,98917.69
2022-11-17T13:22:42.815Z,98921.44
2022-11-17T13:25:21.844Z,98929.38
2022-11-17T13:27:56.085Z,98928.66
2022-11-17T13:30:32.585Z,98933.94
2022-11-17T13:33:02.317Z,98938.84
2022-11-17T13:35:34.129Z,98932.03
2022-11-17T13:38:21.040Z,98949.69
2022-11-17T13:40:50.372Z,98934.81
2022-11-17T13:43:20.566Z,98949.41
2022-11-17T13:45:49.185Z,98957.53
2022-11-17T13:48:36.234Z,98959.91
2022-11-17T13:51:38.900Z,98968.38
2022-11-17T13:54:12.353Z,98973.25
2022-11-17T13:56:52.102Z,98970.34
2022-11-17T13:59:18.874Z,98968.66
2022-11-17T14:01:45.840Z,98976.31
2022-11-17T14:04:19.545Z,98950.03
2022-11-17T14:06:54.969Z,98967.00
2022-11-17T14:09:22.619Z,98970.75
2022-11-17T14:11:52.830Z,98965.63
2022-11-17T14:14:39.504Z,98936.56
2022-11-17T14:17:19.860Z,98982.44
2022-11-17T14:19:47.174Z,98964.09
2022-11-17T14:22:21.333Z,98976.47
2022-11-17T14:24:50.771Z,98964.50
2022-11-17T14:27:30.007Z,98981.88
2022-11-17T14:29:56.847Z,98940.84
2022-11-17T14:32:24.077Z,98918.19
2022-11-17T14:34:50.897Z,98982.84
2022-11-17T14:37:17.766Z,98938.91
2022-11-17T14:39:44.504Z,98943.50
2022-11-17T14:42:11.653Z,98949.22
2022-11-17T14:44:38.732Z,98933.91
2022-11-17T14:47:05.547Z,98962.00
2022-11-17T14:49:32.527Z,98939.34
2022-11-17T14:51:59.558Z,98927.78
2022-11-17T14:54:26.622Z,98920.41
2022-11-17T14:56:53.446Z,98947.25
2022-11-17T14:59:22.986Z,98936.41
2022-11-17T15:01:54.094Z,98958.78
2022-11-17T15:04:48.959Z,98993.84
2022-11-17T15:07:07.560Z,98995.22
2022-11-17T15:09:34.406Z,98951.16
2022-11-17T15:12:01.122Z,98967.44
2022-11-17T15:14:28.080Z,98949.75
2022-11-17T15:16:54.805Z,99007.63
2022-11-17T15:19:21.759Z,98985.78
2022-11-17T15:21:51.187Z,98987.72
2022-11-17T15:24:20.594Z,98971.31
2022-11-17T15:26:47.527Z,99006.66
2022-11-17T15:29:17.946Z,99002.47
2022-11-17T15:31:45.385Z,98987.88
2022-11-17T15:34:19.959Z,99009.28
2022-11-17T15:36:47.807Z,98997.06
2022-11-17T15:39:15.144Z,98979.41
2022-11-17T15:41:41.989Z,99020.56
2022-11-17T15:44:09.011Z,98991.50
2022-11-17T15:46:36.214Z,98990.53
2022-11-17T15:49:04.161Z,98994.00
2022-11-17T15:51:31.013Z,99028.50
2022-11-17T15:53:59.484Z,99035.19
2022-11-17T15:56:28.472Z,99031.56
2022-11-17T15:59:01.678Z,99039.91
2022-11-17T16:01:39.249Z,99047.84
2022-11-17T16:04:08.285Z,99044.22
2022-11-17T16:06:37.082Z,99012.94
2022-11-17T16:09:04.825Z,99024.91
2022-11-17T16:11:31.599Z,99031.44
2022-11-17T16:13:59.695Z,99058.56
2022-11-17T16:16:28.836Z,99057.47
2022-11-17T16:18:55.895Z,99065.41
2022-11-17T16:21:22.713Z,99065.53
2022-11-17T16:23:52.732Z,99067.19
2022-11-17T16:26:23.137Z,99066.81
2022-11-17T16:29:01.237Z,99070.00
2022-11-17T16:31:30.619Z,99071.25
2022-11-17T16:33:59.766Z,99072.50
2022-11-17T16:36:35.606Z,99070.00
2022-11-17T16:39:03.761Z,99079.88
2022-11-17T16:41:38.797Z,99088.66
2022-11-17T16:44:11.772Z,99088.66
2022-11-17T16:46:41.060Z,99091.47
2022-11-17T16:49:10.523Z,99087.16
2022-11-17T16:51:37.210Z,99088.50
2022-11-17T16:54:06.247Z,99091.72
2022-11-17T16:56:34.206Z,99103.69
2022-11-17T16:59:01.242Z,99096.72
2022-11-17T17:01:34.555Z,99095.19
2022-11-17T17:04:04.156Z,99111.19
2022-11-17T17:06:31.231Z,99112.19
2022-11-17T17:09:00.288Z,99124.03
2022-11-17T17:11:29.338Z,99135.47
2022-11-17T17:14:00.219Z,99116.94
2022-11-17T17:16:27.024Z,99126.00
2022-11-17T17:19:01.968Z,99128.63
2022-11-17T17:21:29.835Z,99145.06
2022-11-17T17:23:57.195Z,99149.25
2022-11-17T17:26:25.574Z,99148.81
2022-11-17T17:28:55.192Z,99151.91
2022-11-17T17:31:22.720Z,99151.47
2022-11-17T17:33:50.916Z,99155.50
2022-11-17T17:36:19.197Z,99157.59
2022-11-17T17:38:48.928Z,99163.19
2022-11-17T17:41:24.786Z,99165.81
2022-11-17T17:43:57.046Z,99163.31
2022-11-17T17:46:24.683Z,99169.03
2022-11-17T17:48:51.755Z,99173.22
2022-11-17T17:51:25.773Z,99180.03
2022-11-17T17:53:54.233Z,99177.53
2022-11-17T17:56:22.383Z,99173.34
2022-11-17T17:58:51.638Z,99181.97
2022-11-17T18:01:22.046Z,99198.41
2022-11-17T18:03:50.231Z,99200.38
2022-11-17T18:06:19.289Z,99193.25
2022-11-17T18:08:46.636Z,99199.25
2022-11-17T18:11:21.195Z,99204.53
2022-11-17T18:13:50.478Z,99201.34
2022-11-17T18:16:29.619Z,99209.00
2022-11-17T18:19:01.948Z,99216.66
2022-11-17T18:21:29.174Z,99218.75
2022-11-17T18:23:57.020Z,99220.13
2022-11-17T18:26:29.496Z,99219.72
2022-11-17T18:29:03.368Z,99217.09
2022-11-17T18:31:32.198Z,99211.34
2022-11-17T18:34:01.998Z,99174.97
2022-11-17T18:36:29.778Z,99207.31
2022-11-17T18:38:58.642Z,99202.72
2022-11-17T18:41:26.824Z,99227.81
2022-11-17T18:43:54.803Z,99218.75
2022-11-17T18:46:23.539Z,99227.25
2022-11-17T18:48:54.428Z,99247.44
2022-11-17T18:51:23.347Z,99228.63
2022-11-17T18:53:54.982Z,99201.25
2022-11-17T18:56:24.669Z,99223.06
2022-11-17T18:58:51.960Z,99252.72
2022-11-17T19:01:23.515Z,99257.19
2022-11-17T19:03:53.560Z,99251.59
2022-11-17T19:06:22.825Z,99245.00
2022-11-17T19:08:50.913Z,99266.50
2022-11-17T19:11:20.212Z,99263.19
2022-11-17T19:13:47.777Z,99254.63
2022-11-17T19:16:26.665Z,99260.75
2022-11-17T19:18:56.667Z,99270.34
2022-11-17T19:21:29.115Z,99270.19
2022-11-17T19:23:58.418Z,99245.34
2022-11-17T19:26:30.659Z,99293.47
2022-11-17T19:29:02.580Z,99275.72
2022-11-17T19:31:30.156Z,99307.78
2022-11-17T19:33:58.119Z,99265.25
2022-11-17T19:36:36.031Z,99277.34
2022-11-17T19:39:03.753Z,99273.16
2022-11-17T19:41:37.529Z,99301.63
2022-11-17T19:44:07.412Z,99326.59
2022-11-17T19:46:36.475Z,99294.19
2022-11-17T19:49:07.653Z,99288.88
2022-11-17T19:51:39.917Z,99284.53
2022-11-17T19:54:11.681Z,99340.63
2022-11-17T19:56:38.801Z,99298.72
2022-11-17T19:59:29.954Z,99330.25
2022-11-17T20:01:57.220Z,99363.00
2022-11-17T20:04:28.761Z,99356.69
2022-11-17T20:07:01.068Z,99375.94
2022-11-17T20:09:30.208Z,99384.84
2022-11-17T20:11:57.365Z,99344.25
2022-11-17T20:14:26.728Z,99349.66
2022-11-17T20:17:01.147Z,99380.75
2022-11-17T20:19:30.373Z,99343.19
2022-11-17T20:22:02.970Z,99361.47
2022-11-17T20:24:32.173Z,99363.22
2022-11-17T20:26:59.419Z,99380.06
2022-11-17T20:29:31.131Z,99381.22
2022-11-17T20:31:57.900Z,99387.28
2022-11-17T20:34:24.569Z,99373.94
2022-11-17T20:36:52.701Z,99427.19
2022-11-17T20:39:26.106Z,99396.38
2022-11-17T20:41:53.744Z,99417.13
2022-11-17T20:44:27.250Z,99401.47
2022-11-17T20:46:58.489Z,99371.84
2022-11-17T20:49:27.907Z,99435.97
2022-11-17T20:51:54.785Z,99402.44
2022-11-17T20:54:21.839Z,99422.59
2022-11-17T20:56:48.938Z,99456.91
2022-11-17T20:59:20.045Z,99424.56
2022-11-17T21:01:49.610Z,99437.97
2022-11-17T21:04:16.388Z,99435.38
2022-11-17T21:06:43.153Z,99453.38
2022-11-17T21:09:10.032Z,99441.88
2022-11-17T21:11:55.377Z,99474.38
2022-11-17T21:14:22.489Z,99444.66
2022-11-17T21:16:50.189Z,99477.53
2022-11-17T21:19:17.499Z,99498.03
2022-11-17T21:21:45.146Z,99456.44
2022-11-17T21:24:12.826Z,99434.50
2022-11-17T21:26:39.519Z,99483.19
2022-11-17T21:29:07.185Z,99493.13
2022-11-17T21:31:35.022Z,99468.47
2022-11-17T21:34:04.118Z,99450.13
2022-11-17T21:36:31.811Z,99477.34
2022-11-17T21:38:59.362Z,99509.00
2022-11-17T21:41:28.558Z,99458.06
2022-11-17T21:43:58.713Z,99496.81
2022-11-17T21:46:30.542Z,99497.53
2022-11-17T21:48:58.859Z,99519.59
2022-11-17T21:51:26.943Z,99523.09
2022-11-17T21:53:58.527Z,99495.88
2022-11-17T21:56:28.742Z,99532.47
2022-11-17T21:59:02.986Z,99498.88
2022-11-17T22:01:31.978Z,99536.44
2022-11-17T22:03:58.564Z,99527.91
2022-11-17T22:06:25.755Z,99533.22
2022-11-17T22:08:54.482Z,99536.22
2022-11-17T22:11:36.184Z,99544.84
2022-11-17T22:14:12.290Z,99555.53
2022-11-17T22:16:47.497Z,99554.94
2022-11-17T22:19:16.353Z,99567.06
2022-11-17T22:21:44.277Z,99564.31
2022-11-17T22:24:12.327Z,99573.81
2022-11-17T22:26:41.240Z,99569.34
2022-11-17T22:29:11.612Z,99567.06
2022-11-17T22:31:38.202Z,99570.19
2022-11-17T22:34:04.953Z,99574.03
2022-11-17T22:36:31.571Z,99583.97
2022-11-17T22:38:58.225Z,99579.41
2022-11-17T22:41:24.856Z,99584.78
2022-11-17T22:43:55.724Z,99597.78
2022-11-17T22:46:24.532Z,99598.72
2022-11-17T22:48:54.432Z,99602.47
2022-11-17T22:51:41.525Z,99555.34
2022-11-17T22:54:11.944Z,99591.97
2022-11-17T22:56:39.615Z,99592.94
2022-11-17T22:59:06.561Z,99600.25
2022-11-17T23:01:34.732Z,99589.09
2022-11-17T23:04:01.810Z,99620.78
2022-11-17T23:06:31.346Z,99582.34
2022-11-17T23:08:58.350Z,99604.78
2022-11-17T23:11:41.332Z,99602.28
2022-11-17T23:14:11.294Z,99571.41
2022-11-17T23:16:40.605Z,99636.00
2022-11-17T23:19:13.822Z,99619.75
2022-11-17T23:21:41.470Z,99641.00
2022-11-17T23:24:13.026Z,99655.78
2022-11-17T23:26:40.906Z,99619.50
2022-11-17T23:29:09.581Z,99612.16
2022-11-17T23:31:37.324Z,99669.81
2022-11-17T23:34:04.247Z,99663.94
2022-11-17T23:36:31.479Z,99642.28
2022-11-17T23:38:58.388Z,99647.94
2022-11-17T23:41:25.314Z,99665.00
2022-11-17T23:43:55.427Z,99667.13
2022-11-17T23:46:25.865Z,99687.22
2022-11-17T23:48:54.249Z,99632.75
2022-11-17T23:51:25.711Z,99681.56
2022-11-17T23:53:53.415Z,99668.31
2022-11-17T23:56:21.686Z,99663.25
2022-11-17T23:58:51.973Z,99679.56
